Time;durP1;ratioP1;P1;durP2;ratioP2;P2;SDS_P1;SDS_P2;PMS_P1;PMS_P2;Temp;Humidity;BMP_temperature;BMP_pressure;BME280_temperature;BME280_humidity;BME280_pressure;Samples;Min_cycle;Max_cycle;Signal;HPM_P1;HPM_P2
2022/01/30 00:01:49;;;;;;;11.27;3.90;;;9.30;99.90;;;;;;6121527;23;20420;-86
2022/01/30 00:04:15;;;;;;;12.30;4.10;;;7.50;99.90;;;;;;6122472;23;20448;-86
2022/01/30 00:06:41;;;;;;;10.90;2.90;;;;;;;;;;6098789;23;20233;-83
2022/01/30 00:09:13;;;;;;;13.48;4.03;;;7.30;99.90;;;;;;6124477;23;20157;-83
2022/01/30 00:11:41;;;;;;;12.82;3.50;;;7.80;99.90;;;;;;6097555;23;20157;-84
2022/01/30 00:14:12;;;;;;;14.53;3.97;;;8.20;99.90;;;;;;6102014;23;20184;-84
2022/01/30 00:16:38;;;;;;;14.10;4.55;;;9.00;99.90;;;;;;6096905;23;20399;-83
2022/01/30 00:19:15;;;;;;;4.15;3.13;;;5.50;99.90;;;;;;6095962;23;20458;-84
2022/01/30 00:21:46;;;;;;;14.80;4.68;;;5.50;99.90;;;;;;6122933;23;20572;-85
2022/01/30 00:24:25;;;;;;;18.05;4.10;;;5.70;99.90;;;;;;6127655;23;20129;-85
2022/01/30 00:26:51;;;;;;;13.05;4.88;;;8.30;99.90;;;;;;6098612;23;20514;-85
2022/01/30 00:29:16;;;;;;;15.55;5.85;;;6.60;99.90;;;;;;6119870;23;20279;-85
2022/01/30 00:31:43;;;;;;;17.13;3.60;;;9.80;99.90;;;;;;6120295;23;20187;-85
2022/01/30 00:34:08;;;;;;;16.52;4.10;;;8.40;99.90;;;;;;6122212;23;20192;-86
2022/01/30 00:36:34;;;;;;;17.30;4.27;;;;;;;;;;6120476;23;20150;-85
2022/01/30 00:39:00;;;;;;;12.25;3.97;;;7.00;99.90;;;;;;6121849;23;20185;-85
2022/01/30 00:41:26;;;;;;;10.27;3.60;;;11.10;99.90;;;;;;6120413;23;20137;-84
2022/01/30 00:43:52;;;;;;;14.10;4.32;;;9.30;99.90;;;;;;6122080;23;20183;-83
2022/01/30 00:46:18;;;;;;;6.57;3.70;;;7.20;99.90;;;;;;6120540;23;20220;-84
2022/01/30 00:48:44;;;;;;;17.03;3.60;;;7.60;99.90;;;;;;6123258;23;20188;-84
2022/01/30 00:51:10;;;;;;;14.97;3.90;;;10.00;99.90;;;;;;6120162;23;20394;-85
2022/01/30 00:53:36;;;;;;;15.67;4.10;;;;;;;;;;6122171;23;20369;-84
2022/01/30 00:56:02;;;;;;;17.27;4.78;;;7.10;99.90;;;;;;6122482;23;20169;-85
2022/01/30 00:58:28;;;;;;;11.52;4.63;;;7.10;99.90;;;;;;6122444;23;20204;-84
2022/01/30 01:00:54;;;;;;;25.23;6.87;;;;;;;;;;6125513;23;20545;-82
2022/01/30 01:03:24;;;;;;;10.95;5.25;;;7.10;99.90;;;;;;6126015;23;20636;-84
2022/01/30 01:05:51;;;;;;;18.65;4.40;;;9.10;99.90;;;;;;6121912;23;20184;-84
2022/01/30 01:08:48;;;;;;;14.50;4.53;;;7.20;99.90;;;;;;6122234;23;20153;-84
2022/01/30 01:11:38;;;;;;;16.30;4.80;;;9.40;99.90;;;;;;6125400;23;20644;-85
2022/01/30 01:24:50;;;;;;;15.20;4.28;;;8.60;99.90;;;;;;6123909;23;20640;-85
2022/01/30 01:27:16;;;;;;;11.03;3.63;;;6.80;99.90;;;;;;6122070;23;20240;-85
2022/01/30 01:29:41;;;;;;;25.50;4.50;;;7.30;99.90;;;;;;6099726;23;20244;-84
2022/01/30 01:32:07;;;;;;;12.80;5.33;;;6.40;99.90;;;;;;6126705;23;20537;-83
2022/01/30 01:34:36;;;;;;;11.93;4.25;;;7.00;99.90;;;;;;6097539;23;20196;-84
2022/01/30 01:37:02;;;;;;;17.25;4.60;;;6.90;99.90;;;;;;6124761;23;20208;-84
2022/01/30 01:39:28;;;;;;;27.50;4.32;;;6.90;99.90;;;;;;6099231;23;20153;-83
2022/01/30 01:41:54;;;;;;;18.13;4.47;;;6.70;99.90;;;;;;6125721;23;20683;-84
2022/01/30 01:44:33;;;;;;;11.35;4.10;;;6.50;99.90;;;;;;6100186;23;20161;-85
2022/01/30 01:46:59;;;;;;;25.85;5.40;;;6.70;99.90;;;;;;6096194;23;20605;-85
2022/01/30 01:49:29;;;;;;;11.00;4.38;;;6.30;99.90;;;;;;6127576;23;20252;-85
2022/01/30 01:55:00;;;;;;;13.68;4.85;;;6.60;99.90;;;;;;6005641;23;20188;-86
2022/01/30 01:57:27;;;;;;;15.43;4.30;;;4.60;99.90;;;;;;5984093;23;20848;-84
2022/01/30 01:59:53;;;;;;;28.50;6.47;;;6.10;99.90;;;;;;6064012;23;20477;-85
2022/01/30 02:02:21;;;;;;;13.30;3.72;;;6.80;99.90;;;;;;6099600;23;20240;-84
2022/01/30 02:04:47;;;;;;;26.40;4.20;;;4.60;99.90;;;;;;6122418;23;20153;-84
2022/01/30 02:09:40;;;;;;;15.20;4.68;;;6.60;99.90;;;;;;6126332;23;20810;-84
2022/01/30 02:12:13;;;;;;;24.25;5.57;;;5.60;99.90;;;;;;6099877;23;20157;-84
2022/01/30 02:14:49;;;;;;;15.00;4.00;;;7.10;99.90;;;;;;6125187;23;20260;-85
2022/01/30 02:25:42;;;;;;;22.83;5.38;;;8.50;99.90;;;;;;6119497;23;20196;-85
2022/01/30 02:28:20;;;;;;;16.63;4.97;;;6.10;99.90;;;;;;6120748;23;20204;-85
2022/01/30 02:30:55;;;;;;;11.00;3.72;;;5.70;99.90;;;;;;6121241;23;20149;-85
2022/01/30 02:33:23;;;;;;;22.48;5.72;;;6.10;99.90;;;;;;6119971;23;20152;-85
2022/01/30 02:35:49;;;;;;;15.70;3.53;;;6.10;99.90;;;;;;6095196;23;20641;-84
2022/01/30 02:38:16;;;;;;;15.63;3.60;;;6.40;99.90;;;;;;6098032;23;20157;-84
2022/01/30 02:40:45;;;;;;;14.40;4.30;;;8.60;99.90;;;;;;6121561;23;20161;-84
2022/01/30 02:43:16;;;;;;;17.65;4.00;;;5.90;99.90;;;;;;6119615;23;20224;-84
2022/01/30 02:45:52;;;;;;;16.10;4.05;;;5.90;99.90;;;;;;6121739;23;20536;-85
2022/01/30 02:48:30;;;;;;;25.65;5.70;;;5.20;99.90;;;;;;6122862;23;20666;-84
2022/01/30 02:51:08;;;;;;;22.85;3.75;;;8.80;99.90;;;;;;6095755;23;20183;-84
2022/01/30 02:53:39;;;;;;;10.88;4.15;;;5.00;99.90;;;;;;6122165;23;20141;-83
2022/01/30 02:56:05;;;;;;;15.82;3.45;;;8.00;99.90;;;;;;6098250;23;20511;-84
2022/01/30 02:58:46;;;;;;;21.55;3.40;;;9.30;99.90;;;;;;6098554;23;20594;-83
2022/01/30 03:01:53;;;;;;;22.40;4.30;;;5.90;99.90;;;;;;6097664;23;20165;-86
2022/01/30 03:05:00;;;;;;;19.20;4.30;;;5.00;99.90;;;;;;6039906;23;20186;-84
2022/01/30 03:07:39;;;;;;;17.27;4.55;;;6.10;99.90;;;;;;6010837;23;20167;-86
2022/01/30 03:10:21;;;;;;;10.85;3.42;;;6.20;99.90;;;;;;6034826;23;20159;-84
2022/01/30 03:12:47;;;;;;;27.15;4.78;;;;;;;;;;6086338;23;20161;-84
2022/01/30 03:15:13;;;;;;;22.45;6.35;;;6.30;99.90;;;;;;6119235;23;20540;-84
2022/01/30 03:17:48;;;;;;;18.27;4.43;;;9.00;99.90;;;;;;6120615;23;20236;-84
2022/01/30 03:20:14;;;;;;;21.83;4.03;;;;;;;;;;6120531;23;20590;-85
2022/01/30 03:22:40;;;;;;;19.58;3.53;;;6.50;99.90;;;;;;6117592;23;20157;-85
2022/01/30 03:25:06;;;;;;;17.88;4.13;;;9.10;99.90;;;;;;6119541;23;20472;-84
2022/01/30 03:27:32;;;;;;;15.27;3.67;;;7.60;99.90;;;;;;6097749;23;20173;-85
2022/01/30 03:30:05;;;;;;;12.47;4.20;;;;;;;;;;6102012;23;20467;-86
2022/01/30 03:32:31;;;;;;;9.20;3.00;;;6.40;99.90;;;;;;6094318;23;20219;-86
2022/01/30 03:34:57;;;;;;;7.97;3.90;;;;;;;;;;6093455;23;20925;-86
2022/01/30 03:37:27;;;;;;;11.73;3.20;;;6.40;99.90;;;;;;6120806;23;20373;-86
2022/01/30 03:39:53;;;;;;;17.83;4.93;;;;;;;;;;6097669;23;20149;-86
2022/01/30 03:42:18;;;;;;;24.17;5.80;;;6.50;99.90;;;;;;6121416;23;20176;-87
2022/01/30 03:44:49;;;;;;;20.77;4.37;;;9.20;99.90;;;;;;6101850;23;20769;-90
2022/01/30 03:47:17;;;;;;;23.52;3.88;;;6.40;99.90;;;;;;6105593;23;20150;-91
2022/01/30 03:49:42;;;;;;;20.45;5.35;;;7.20;99.90;;;;;;6097859;23;20194;-90
2022/01/30 03:52:09;;;;;;;16.67;4.70;;;;;;;;;;6098037;23;20182;-90
2022/01/30 03:54:42;;;;;;;14.18;3.80;;;6.30;99.90;;;;;;6109968;23;20209;-90
2022/01/30 03:57:08;;;;;;;19.27;4.13;;;5.80;99.90;;;;;;6097855;23;20151;-91
2022/01/30 03:59:34;;;;;;;24.53;5.20;;;8.00;99.90;;;;;;6089517;23;20165;-92
2022/01/30 04:02:00;;;;;;;17.40;3.80;;;8.10;99.90;;;;;;6089284;23;20217;-91
2022/01/30 04:04:26;;;;;;;12.07;4.33;;;;;;;;;;6091448;23;20385;-91
2022/01/30 04:06:51;;;;;;;17.43;3.27;;;5.90;99.90;;;;;;6090584;23;20162;-91
2022/01/30 04:09:17;;;;;;;19.17;5.10;;;;;;;;;;6090773;23;20417;-90
2022/01/30 04:11:43;;;;;;;16.58;5.30;;;5.80;99.90;;;;;;6091749;23;20292;-91
2022/01/30 04:14:09;;;;;;;13.87;4.50;;;5.80;99.90;;;;;;6092272;23;20237;-89
2022/01/30 04:16:38;;;;;;;15.38;3.80;;;5.70;99.90;;;;;;6092273;23;20170;-89
2022/01/30 04:19:04;;;;;;;15.60;5.40;;;3.30;99.90;;;;;;6096432;23;20213;-90
2022/01/30 04:21:30;;;;;;;13.68;3.53;;;3.90;99.90;;;;;;6094367;23;20613;-90
2022/01/30 04:23:56;;;;;;;25.05;3.85;;;5.00;99.90;;;;;;6101574;23;20180;-89
2022/01/30 04:26:22;;;;;;;12.43;3.90;;;;;;;;;;6101044;23;20150;-89
2022/01/30 04:28:49;;;;;;;17.60;5.30;;;5.80;99.90;;;;;;6114877;23;20343;-92
2022/01/30 04:31:20;;;;;;;21.45;4.18;;;5.40;99.90;;;;;;6107003;23;20169;-91
2022/01/30 04:33:47;;;;;;;19.97;4.03;;;5.60;99.90;;;;;;6110358;23;20149;-90
2022/01/30 04:36:18;;;;;;;14.05;3.22;;;6.00;99.90;;;;;;6110351;23;20174;-90
2022/01/30 04:38:57;;;;;;;13.63;3.15;;;8.20;99.90;;;;;;6114566;23;20150;-89
2022/01/30 04:42:24;;;;;;;13.70;3.80;;;6.00;99.90;;;;;;6119072;23;20152;-90
2022/01/30 04:52:51;;;;;;;16.13;4.10;;;4.60;99.90;;;;;;6166387;23;20192;-88
2022/01/30 04:58:21;;;;;;;17.23;4.45;;;4.60;99.90;;;;;;6166577;23;20179;-91
2022/01/30 05:06:04;;;;;;;18.08;4.32;;;4.80;99.90;;;;;;6163665;23;20659;-90
2022/01/30 05:08:30;;;;;;;19.73;4.45;;;3.80;99.90;;;;;;6131023;23;20167;-89
2022/01/30 05:10:56;;;;;;;15.23;4.03;;;;;;;;;;6156865;23;20180;-90
2022/01/30 05:13:47;;;;;;;11.40;3.72;;;5.90;99.90;;;;;;6158190;23;20211;-90
2022/01/30 05:16:19;;;;;;;14.07;3.92;;;5.80;99.90;;;;;;6134795;23;20164;-90
2022/01/30 05:18:48;;;;;;;15.02;3.90;;;6.50;99.90;;;;;;6133015;23;20160;-89
2022/01/30 05:21:14;;;;;;;11.88;3.35;;;5.80;99.90;;;;;;6135425;23;20165;-90
2022/01/30 05:23:42;;;;;;;15.17;3.50;;;6.00;99.90;;;;;;6133707;23;20715;-90
2022/01/30 05:26:08;;;;;;;15.88;3.67;;;6.00;99.90;;;;;;6133379;23;20406;-89
2022/01/30 05:28:40;;;;;;;18.83;4.97;;;7.10;99.90;;;;;;6161965;23;20161;-89
2022/01/30 05:31:06;;;;;;;10.15;2.40;;;5.90;99.90;;;;;;6138012;23;20396;-92
2022/01/30 05:33:32;;;;;;;12.48;3.15;;;8.60;99.90;;;;;;6166653;23;20149;-86
2022/01/30 05:36:07;;;;;;;17.90;4.80;;;5.90;99.90;;;;;;6138794;23;20263;-90
2022/01/30 05:38:35;;;;;;;17.63;3.10;;;6.00;99.90;;;;;;6163947;23;20372;-90
2022/01/30 05:41:02;;;;;;;14.43;3.38;;;6.90;99.90;;;;;;6139659;23;20168;-90
2022/01/30 05:43:30;;;;;;;9.30;4.25;;;5.80;99.90;;;;;;6168372;23;20208;-91
2022/01/30 05:46:06;;;;;;;6.85;2.67;;;5.90;99.90;;;;;;6163642;23;20362;-90
2022/01/30 05:48:36;;;;;;;13.95;2.97;;;7.90;99.90;;;;;;6163181;23;20151;-90
2022/01/30 05:51:02;;;;;;;12.35;3.38;;;6.50;99.90;;;;;;6138600;23;20540;-90
2022/01/30 05:53:28;;;;;;;14.10;4.15;;;7.60;99.90;;;;;;6145955;23;20163;-90
2022/01/30 05:55:54;;;;;;;17.30;5.60;;;6.60;99.90;;;;;;6143732;23;20177;-89
2022/01/30 05:58:20;;;;;;;10.33;3.30;;;;;;;;;;6141084;23;20584;-90
2022/01/30 06:00:46;;;;;;;9.23;3.28;;;5.80;99.90;;;;;;6169206;23;20183;-90
2022/01/30 06:03:12;;;;;;;13.80;3.87;;;7.40;99.90;;;;;;6143570;23;20201;-89
2022/01/30 06:05:41;;;;;;;17.67;4.20;;;6.90;99.90;;;;;;6148077;23;20400;-90
2022/01/30 06:08:14;;;;;;;10.60;4.20;;;6.40;99.90;;;;;;6162173;23;20176;-91
2022/01/30 06:10:40;;;;;;;17.35;5.18;;;5.00;99.90;;;;;;6141878;23;20141;-89
2022/01/30 06:13:34;;;;;;;10.68;3.20;;;9.00;99.90;;;;;;6171244;23;20168;-90
2022/01/30 06:16:00;;;;;;;11.68;4.25;;;5.10;99.90;;;;;;6167765;23;20211;-90
2022/01/30 06:18:33;;;;;;;24.60;3.58;;;5.90;99.90;;;;;;6172635;23;20238;-88
2022/01/30 06:20:59;;;;;;;12.43;2.63;;;6.70;99.90;;;;;;6176527;23;20141;-90
2022/01/30 06:23:26;;;;;;;13.53;4.60;;;5.70;99.90;;;;;;6146475;23;20175;-90
2022/01/30 06:25:56;;;;;;;13.15;3.25;;;7.20;99.90;;;;;;6143758;23;20416;-90
2022/01/30 06:28:33;;;;;;;22.58;4.47;;;6.90;99.90;;;;;;6173352;23;20144;-90
2022/01/30 06:30:59;;;;;;;15.43;4.70;;;8.00;99.90;;;;;;6174829;23;20125;-90
2022/01/30 06:33:30;;;;;;;15.30;4.00;;;6.30;99.90;;;;;;6146137;23;20171;-91
2022/01/30 06:35:56;;;;;;;13.20;3.42;;;5.50;99.90;;;;;;6175729;23;20417;-91
2022/01/30 06:38:22;;;;;;;11.00;3.58;;;7.90;99.90;;;;;;6149151;23;20161;-91
2022/01/30 06:40:48;;;;;;;11.80;2.60;;;5.70;99.90;;;;;;6144503;23;20165;-90
2022/01/30 06:43:14;;;;;;;15.43;3.70;;;5.60;99.90;;;;;;6134036;23;20176;-90
2022/01/30 06:45:42;;;;;;;10.17;3.40;;;;;;;;;;6140118;23;20380;-90
2022/01/30 06:48:10;;;;;;;6.53;3.20;;;5.70;99.90;;;;;;6161740;23;20156;-90
2022/01/30 06:50:40;;;;;;;17.70;3.70;;;6.40;99.90;;;;;;6173242;23;20185;-90
2022/01/30 06:53:06;;;;;;;15.57;3.45;;;6.80;99.90;;;;;;6147261;23;20152;-90
2022/01/30 06:55:58;;;;;;;12.00;2.50;;;5.20;99.90;;;;;;6144237;23;20188;-91
2022/01/30 06:58:31;;;;;;;11.20;3.70;;;6.80;99.90;;;;;;6161072;23;20163;-89
2022/01/30 07:00:57;;;;;;;14.48;4.25;;;8.80;99.90;;;;;;6172553;23;20149;-87
2022/01/30 07:03:32;;;;;;;10.57;3.40;;;6.60;99.90;;;;;;6147755;23;20168;-90
2022/01/30 07:05:57;;;;;;;14.45;2.95;;;3.70;99.90;;;;;;6171288;23;20375;-90
2022/01/30 07:08:23;;;;;;;8.53;4.77;;;;;;;;;;6139775;23;20375;-89
2022/01/30 07:11:07;;;;;;;7.60;3.03;;;5.30;99.90;;;;;;6169460;23;20155;-90
2022/01/30 07:13:33;;;;;;;8.73;2.45;;;7.70;99.90;;;;;;6169802;23;20376;-90
2022/01/30 07:15:59;;;;;;;5.60;3.70;;;;;;;;;;6135014;23;20208;-89
2022/01/30 07:18:24;;;;;;;9.07;3.70;;;5.20;99.90;;;;;;6166630;23;20356;-91
2022/01/30 07:20:53;;;;;;;14.87;2.80;;;6.00;99.90;;;;;;6173122;23;20390;-89
2022/01/30 07:23:19;;;;;;;17.00;2.58;;;7.70;99.90;;;;;;6174226;23;20132;-91
2022/01/30 07:25:49;;;;;;;10.73;3.10;;;7.80;99.90;;;;;;6146484;23;20242;-89
2022/01/30 07:28:15;;;;;;;17.23;3.85;;;2.80;99.90;;;;;;6145982;23;20141;-90
2022/01/30 07:30:45;;;;;;;14.63;3.47;;;6.00;99.90;;;;;;6149938;23;20164;-90
2022/01/30 07:33:18;;;;;;;9.98;3.75;;;5.90;99.90;;;;;;6145008;23;20455;-89
2022/01/30 07:35:54;;;;;;;8.00;2.65;;;6.50;99.90;;;;;;6138118;23;20184;-89
2022/01/30 07:38:21;;;;;;;10.27;2.58;;;5.10;99.90;;;;;;6146338;23;20151;-89
2022/01/30 07:41:02;;;;;;;10.45;2.75;;;6.80;99.90;;;;;;6142376;23;20165;-90
2022/01/30 07:43:29;;;;;;;17.45;3.10;;;6.20;99.90;;;;;;6147240;23;20188;-90
2022/01/30 07:45:58;;;;;;;12.15;3.33;;;9.20;99.90;;;;;;6137678;23;20286;-90
2022/01/30 07:48:27;;;;;;;10.50;2.92;;;6.20;99.90;;;;;;6165304;23;20152;-89
2022/01/30 07:50:55;;;;;;;11.68;2.85;;;3.80;99.90;;;;;;6160877;23;20164;-90
2022/01/30 07:53:34;;;;;;;8.88;2.53;;;5.40;99.90;;;;;;6136555;23;20371;-88
2022/01/30 07:56:01;;;;;;;7.63;2.25;;;6.00;99.90;;;;;;6158075;23;20513;-89
2022/01/30 07:58:26;;;;;;;13.90;2.73;;;5.70;99.90;;;;;;6163146;23;20184;-89
2022/01/30 08:00:52;;;;;;;7.10;2.67;;;5.50;99.90;;;;;;6160653;23;20187;-90
2022/01/30 08:03:18;;;;;;;10.80;3.30;;;10.60;99.90;;;;;;6128694;23;20482;-89
2022/01/30 08:05:44;;;;;;;149.27;60.07;;;7.10;99.90;;;;;;6155376;23;20406;-90
2022/01/30 08:08:10;;;;;;;18.63;4.10;;;;;;;;;;6128775;23;20164;-89
2022/01/30 08:10:36;;;;;;;13.82;2.72;;;5.80;99.90;;;;;;6135476;23;20187;-87
2022/01/30 08:13:02;;;;;;;6.20;2.80;;;9.40;99.90;;;;;;6133115;23;20414;-88
2022/01/30 08:15:28;;;;;;;14.88;2.90;;;6.50;99.90;;;;;;6128026;23;20440;-89
2022/01/30 08:17:54;;;;;;;5.80;2.93;;;;;;;;;;6127351;23;20248;-89
2022/01/30 08:20:21;;;;;;;7.53;2.85;;;6.10;99.90;;;;;;6128087;23;20887;-90
2022/01/30 08:22:51;;;;;;;13.32;2.70;;;5.60;99.90;;;;;;6132095;23;20161;-85
2022/01/30 08:25:21;;;;;;;13.07;4.20;;;6.20;99.90;;;;;;6132028;23;20172;-90
2022/01/30 08:27:47;;;;;;;8.05;3.30;;;4.80;99.90;;;;;;6135478;23;20511;-90
2022/01/30 08:30:13;;;;;;;12.35;3.42;;;9.20;99.90;;;;;;6129707;23;20188;-90
2022/01/30 08:32:47;;;;;;;18.13;4.50;;;6.10;99.90;;;;;;6137242;23;20185;-91
2022/01/30 08:35:15;;;;;;;7.72;2.35;;;9.40;99.90;;;;;;6143394;23;20192;-89
2022/01/30 08:37:41;;;;;;;10.13;3.83;;;8.80;99.90;;;;;;6157479;23;20137;-89
2022/01/30 08:40:13;;;;;;;12.68;5.57;;;6.30;99.90;;;;;;6134705;23;20167;-84
2022/01/30 08:42:39;;;;;;;11.50;4.00;;;9.50;99.90;;;;;;6132949;23;20160;-91
2022/01/30 08:45:06;;;;;;;17.10;3.87;;;7.80;99.90;;;;;;6132856;23;20594;-89
2022/01/30 08:47:32;;;;;;;9.52;3.30;;;6.90;99.90;;;;;;6131566;23;20405;-90
2022/01/30 08:50:06;;;;;;;12.32;3.53;;;7.70;99.90;;;;;;6128819;23;20157;-89
2022/01/30 08:52:35;;;;;;;7.95;3.45;;;6.80;99.90;;;;;;6136230;23;20156;-90
2022/01/30 08:55:08;;;;;;;12.82;3.47;;;7.60;99.90;;;;;;6165547;23;20173;-89
2022/01/30 08:57:40;;;;;;;10.27;2.50;;;6.50;99.90;;;;;;6157381;23;20152;-87
2022/01/30 09:00:15;;;;;;;18.08;4.45;;;4.40;99.90;;;;;;6131275;23;20164;-88
2022/01/30 09:02:42;;;;;;;13.10;3.85;;;6.70;99.90;;;;;;6155029;23;20136;-90
2022/01/30 09:05:12;;;;;;;9.10;3.20;;;10.00;99.90;;;;;;6137169;23;20144;-89
2022/01/30 09:07:46;;;;;;;13.88;4.80;;;4.80;99.90;;;;;;6161800;23;20239;-89
2022/01/30 09:10:12;;;;;;;13.48;3.65;;;6.60;99.90;;;;;;6164165;23;20149;-89
2022/01/30 09:12:39;;;;;;;24.50;4.15;;;6.90;99.90;;;;;;6164154;23;20203;-84
2022/01/30 09:15:11;;;;;;;9.55;3.97;;;8.10;99.90;;;;;;6165013;23;20184;-89
2022/01/30 09:17:40;;;;;;;11.30;3.83;;;6.90;99.90;;;;;;6155503;23;20164;-86
2022/01/30 09:20:07;;;;;;;15.85;4.18;;;7.30;99.90;;;;;;6155567;23;20675;-90
2022/01/30 09:22:42;;;;;;;14.32;4.40;;;7.90;99.90;;;;;;6156494;23;20160;-91
2022/01/30 09:25:11;;;;;;;20.55;4.55;;;9.60;99.90;;;;;;6156550;23;20172;-89
2022/01/30 09:27:39;;;;;;;18.48;4.95;;;4.80;99.90;;;;;;6153579;23;20580;-89
2022/01/30 09:30:09;;;;;;;16.00;5.43;;;5.50;99.90;;;;;;6156077;23;20243;-86
2022/01/30 09:32:34;;;;;;;21.73;4.40;;;7.10;99.90;;;;;;6157931;23;20155;-88
2022/01/30 09:35:00;;;;;;;13.13;3.10;;;8.80;99.90;;;;;;6162368;23;20192;-85
2022/01/30 09:37:30;;;;;;;9.37;3.43;;;8.10;99.90;;;;;;6166566;23;20168;-86
2022/01/30 09:40:01;;;;;;;15.80;4.63;;;8.40;99.90;;;;;;6157169;23;20987;-90
2022/01/30 09:42:28;;;;;;;12.55;3.05;;;7.90;99.90;;;;;;6154823;23;20168;-89
2022/01/30 09:45:04;;;;;;;10.40;3.27;;;8.80;99.90;;;;;;6156029;23;20180;-89
2022/01/30 09:47:35;;;;;;;9.43;3.67;;;8.40;99.90;;;;;;6161397;23;20372;-81
2022/01/30 09:50:12;;;;;;;8.18;4.07;;;11.60;99.90;;;;;;6157179;23;20149;-88
2022/01/30 09:52:41;;;;;;;10.07;3.33;;;10.30;99.90;;;;;;6157412;23;20156;-90
2022/01/30 09:55:17;;;;;;;11.68;4.35;;;8.80;99.90;;;;;;6153224;23;20519;-91
2022/01/30 09:57:43;;;;;;;15.80;3.90;;;9.80;99.90;;;;;;6152849;23;20159;-88
2022/01/30 10:00:12;;;;;;;11.80;4.10;;;12.80;99.90;;;;;;6159822;23;20398;-90
2022/01/30 10:02:43;;;;;;;7.37;3.33;;;11.40;99.90;;;;;;6159302;23;20372;-85
2022/01/30 10:05:10;;;;;;;8.13;2.83;;;13.60;99.90;;;;;;6156449;23;20796;-89
2022/01/30 10:07:45;;;;;;;16.97;3.87;;;14.10;99.90;;;;;;6153424;23;20732;-88
2022/01/30 10:10:51;;;;;;;16.90;4.50;;;10.70;99.90;;;;;;6155957;23;20437;-91
2022/01/30 10:13:17;;;;;;;8.50;3.47;;;12.20;99.90;;;;;;6157801;23;20399;-90
2022/01/30 10:15:56;;;;;;;16.87;4.57;;;11.30;99.90;;;;;;6140902;23;20452;-89
2022/01/30 10:21:18;;;;;;;9.80;3.00;;;11.00;99.90;;;;;;6124869;23;20846;-89
2022/01/30 10:23:46;;;;;;;14.03;3.40;;;12.90;99.90;;;;;;6095571;23;20393;-88
2022/01/30 10:26:18;;;;;;;13.80;3.97;;;12.20;99.90;;;;;;6096773;23;20467;-90
2022/01/30 10:28:44;;;;;;;7.90;4.30;;;11.70;99.90;;;;;;6096375;23;20408;-91
2022/01/30 10:31:10;;;;;;;10.07;3.63;;;12.30;99.90;;;;;;6098054;23;20397;-88
2022/01/30 10:33:42;;;;;;;15.27;4.10;;;12.60;99.90;;;;;;6094741;23;20801;-88
2022/01/30 10:36:09;;;;;;;15.10;3.90;;;13.50;99.90;;;;;;6089385;23;20969;-89
2022/01/30 10:38:41;;;;;;;12.57;4.40;;;12.60;99.90;;;;;;6099301;23;20397;-91
2022/01/30 10:41:22;;;;;;;13.23;3.90;;;13.70;99.90;;;;;;6112255;23;20438;-90
2022/01/30 10:44:27;;;;;;;8.73;3.40;;;13.70;99.90;;;;;;6104561;23;20400;-90
2022/01/30 10:47:07;;;;;;;13.43;4.17;;;14.20;99.90;;;;;;6097410;23;20941;-91
2022/01/30 10:49:50;;;;;;;9.40;4.07;;;14.20;99.90;;;;;;6102723;23;20377;-91
2022/01/30 10:52:20;;;;;;;9.87;3.33;;;13.10;99.90;;;;;;6158038;23;20442;-89
2022/01/30 10:54:50;;;;;;;12.20;3.73;;;12.60;99.90;;;;;;6163326;23;20467;-82
2022/01/30 10:57:18;;;;;;;8.33;3.40;;;12.20;99.90;;;;;;6170006;23;20414;-89
2022/01/30 10:59:53;;;;;;;13.00;4.70;;;11.90;99.90;;;;;;6167997;23;20408;-90
2022/01/30 11:02:25;;;;;;;13.13;4.87;;;12.00;99.90;;;;;;6165108;23;20503;-85
2022/01/30 11:05:06;;;;;;;15.50;5.10;;;11.80;99.90;;;;;;6146680;23;20389;-88
2022/01/30 11:07:35;;;;;;;16.17;4.77;;;12.10;99.90;;;;;;6147613;23;20392;-88
2022/01/30 11:10:15;;;;;;;10.33;4.30;;;12.20;99.90;;;;;;6143714;23;20411;-89
2022/01/30 11:13:07;;;;;;;13.07;3.90;;;12.30;99.90;;;;;;6141697;23;20403;-88
2022/01/30 11:16:55;;;;;;;17.47;4.40;;;11.70;97.50;;;;;;6171351;23;20446;-89
2022/01/30 11:18:32;;;;;;;20.43;5.40;;;11.20;99.90;;;;;;6165079;23;20410;-87
2022/01/30 11:21:00;;;;;;;12.43;4.97;;;11.40;98.10;;;;;;6146244;23;20400;-85
2022/01/30 11:23:28;;;;;;;21.73;5.10;;;11.40;98.30;;;;;;6141785;23;20447;-84
2022/01/30 11:26:18;;;;;;;27.07;4.83;;;12.10;95.40;;;;;;6169883;23;20388;-89
2022/01/30 11:28:47;;;;;;;12.07;4.20;;;13.00;91.60;;;;;;6144390;23;20474;-88
2022/01/30 11:31:16;;;;;;;15.23;4.30;;;13.70;86.40;;;;;;6167051;23;20373;-87
2022/01/30 11:33:44;;;;;;;12.10;4.10;;;13.90;74.90;;;;;;6140968;23;20376;-86
2022/01/30 11:36:16;;;;;;;16.23;5.53;;;13.80;74.90;;;;;;6144020;23;20494;-87
2022/01/30 11:38:42;;;;;;;10.07;4.00;;;13.10;76.30;;;;;;6138065;23;20383;-87
2022/01/30 11:41:13;;;;;;;18.00;6.40;;;12.50;84.20;;;;;;6139355;23;20411;-88
2022/01/30 11:44:17;;;;;;;13.37;5.53;;;10.80;92.70;;;;;;6144973;23;20384;-86
2022/01/30 11:46:53;;;;;;;23.67;6.17;;;11.60;95.70;;;;;;6167748;23;20488;-88
2022/01/30 11:49:19;;;;;;;17.60;5.00;;;10.30;94.70;;;;;;6142731;23;20391;-81
2022/01/30 11:52:11;;;;;;;19.43;5.50;;;9.90;99.90;;;;;;6143787;23;20393;-88
2022/01/30 11:54:41;;;;;;;21.57;5.83;;;10.80;98.30;;;;;;6138903;23;20679;-84
2022/01/30 11:57:22;;;;;;;21.30;5.33;;;8.90;99.90;;;;;;6139633;23;20381;-87
2022/01/30 12:00:01;;;;;;;15.20;5.43;;;13.80;99.90;;;;;;6165929;23;20411;-83
2022/01/30 12:02:39;;;;;;;19.10;6.00;;;12.70;98.60;;;;;;6125211;23;20441;-89
2022/01/30 12:05:23;;;;;;;13.27;4.13;;;11.00;96.60;;;;;;6107708;23;20391;-82
2022/01/30 12:07:49;;;;;;;15.20;4.57;;;13.30;95.90;;;;;;6130937;23;20407;-78
2022/01/30 12:10:27;;;;;;;16.20;4.30;;;12.10;95.00;;;;;;6104818;23;20432;-86
2022/01/30 12:12:55;;;;;;;12.60;4.70;;;15.40;95.50;;;;;;6129680;23;20419;-83
2022/01/30 12:15:41;;;;;;;16.60;4.10;;;13.20;88.30;;;;;;6093575;23;20867;-84
2022/01/30 12:18:10;;;;;;;20.80;4.73;;;12.70;92.60;;;;;;6101296;23;20403;-84
2022/01/30 12:21:05;;;;;;;14.40;4.90;;;10.80;91.90;;;;;;6103776;23;20405;-82
2022/01/30 12:23:33;;;;;;;13.77;4.37;;;11.40;92.90;;;;;;6128066;23;20687;-88
2022/01/30 12:26:05;;;;;;;17.93;5.00;;;12.60;94.70;;;;;;6099753;23;20413;-88
2022/01/30 12:28:49;;;;;;;17.23;5.03;;;11.10;92.60;;;;;;6098095;23;20391;-85
2022/01/30 12:31:36;;;;;;;17.33;6.10;;;11.70;96.60;;;;;;6123114;23;20795;-89
2022/01/30 12:34:15;;;;;;;24.23;5.70;;;12.10;97.40;;;;;;6125463;23;20393;-86
2022/01/30 12:36:43;;;;;;;12.10;4.37;;;12.00;99.30;;;;;;6127184;23;20677;-82
2022/01/30 12:39:21;;;;;;;16.93;3.80;;;10.40;98.60;;;;;;6100599;23;20653;-87
2022/01/30 12:41:48;;;;;;;15.83;4.90;;;9.20;99.80;;;;;;6125002;23;20382;-85
2022/01/30 12:44:23;;;;;;;12.33;4.17;;;12.90;99.90;;;;;;6128077;23;20377;-86
2022/01/30 12:46:53;;;;;;;21.17;6.40;;;10.00;99.90;;;;;;6131639;23;20862;-87
2022/01/30 12:49:25;;;;;;;12.65;4.35;;;11.10;99.90;;;;;;6104884;23;20477;-86
2022/01/30 12:51:53;;;;;;;15.48;4.80;;;7.50;99.90;;;;;;6108497;23;20161;-86
2022/01/30 12:54:22;;;;;;;32.50;14.82;;;9.70;99.90;;;;;;6103130;23;20173;-86
2022/01/30 12:56:49;;;;;;;21.63;6.33;;;9.80;99.90;;;;;;6101632;23;20161;-87
2022/01/30 12:59:19;;;;;;;27.05;4.90;;;10.10;99.90;;;;;;6131508;23;20381;-85
2022/01/30 13:02:03;;;;;;;32.65;7.55;;;10.00;99.90;;;;;;6115143;23;20221;-88
2022/01/30 13:04:37;;;;;;;20.17;5.13;;;9.50;99.90;;;;;;6135121;23;20295;-90
2022/01/30 13:07:03;;;;;;;24.98;5.85;;;10.10;99.90;;;;;;6135020;23;20429;-83
2022/01/30 13:09:31;;;;;;;31.53;8.17;;;10.00;99.90;;;;;;6134514;23;20216;-82
2022/01/30 13:12:11;;;;;;;16.37;5.30;;;9.50;99.90;;;;;;6139654;23;20374;-84
2022/01/30 13:14:51;;;;;;;22.53;5.40;;;9.00;99.90;;;;;;6141594;23;20479;-87
2022/01/30 13:17:26;;;;;;;21.83;4.60;;;8.00;99.70;;;;;;6138047;23;20441;-86
2022/01/30 13:19:52;;;;;;;24.37;5.60;;;9.80;99.90;;;;;;6133990;23;20404;-84
2022/01/30 13:22:29;;;;;;;13.90;4.78;;;9.80;99.90;;;;;;6132282;23;20407;-80
2022/01/30 13:25:04;;;;;;;24.80;4.97;;;10.00;99.90;;;;;;6134579;23;20216;-85
2022/01/30 13:27:30;;;;;;;24.73;6.27;;;7.50;99.90;;;;;;6137889;23;20380;-87
2022/01/30 13:30:24;;;;;;;31.57;5.30;;;12.20;99.90;;;;;;6139033;23;20408;-86
2022/01/30 13:32:50;;;;;;;16.83;4.60;;;11.00;99.90;;;;;;6085392;23;20377;-86
2022/01/30 13:35:23;;;;;;;15.10;4.70;;;7.90;99.90;;;;;;6134602;23;20532;-87
2022/01/30 13:37:49;;;;;;;12.73;3.97;;;10.70;99.90;;;;;;6135827;23;20413;-89
2022/01/30 13:40:26;;;;;;;25.40;5.93;;;12.00;99.90;;;;;;6130427;23;20495;-89
2022/01/30 13:42:54;;;;;;;15.63;5.13;;;13.30;99.90;;;;;;6133633;23;20388;-84
2022/01/30 13:48:13;;;;;;;23.33;6.50;;;9.10;99.90;;;;;;6127412;23;20443;-86
2022/01/30 13:50:45;;;;;;;20.03;5.23;;;9.30;99.90;;;;;;6121094;23;20486;-88
2022/01/30 13:53:15;;;;;;;19.30;4.60;;;10.20;99.90;;;;;;6122553;23;20397;-86
2022/01/30 13:56:02;;;;;;;16.87;4.93;;;13.00;99.90;;;;;;6122005;23;20437;-89
2022/01/30 13:58:37;;;;;;;9.47;3.47;;;12.10;98.20;;;;;;6128186;23;20365;-88